sensor_id;sensor_type;location;lat;lon;timestamp;temperature;humidity
71188;DHT22;58893;53.130;8.158;2022-07-17T00:00:26;17.20;55.60
71188;DHT22;58893;53.130;8.158;2022-07-17T00:02:52;17.10;55.50
71188;DHT22;58893;53.130;8.158;2022-07-17T00:05:18;17.10;55.50
71188;DHT22;58893;53.130;8.158;2022-07-17T00:07:44;17.10;55.60
71188;DHT22;58893;53.130;8.158;2022-07-17T00:10:12;17.10;55.80
71188;DHT22;58893;53.130;8.158;2022-07-17T00:12:38;17.00;55.90
71188;DHT22;58893;53.130;8.158;2022-07-17T00:15:04;17.00;55.80
71188;DHT22;58893;53.130;8.158;2022-07-17T00:17:30;17.00;55.80
71188;DHT22;58893;53.130;8.158;2022-07-17T00:19:55;17.00;55.70
71188;DHT22;58893;53.130;8.158;2022-07-17T00:22:21;16.90;55.70
71188;DHT22;58893;53.130;8.158;2022-07-17T00:24:46;16.90;55.80
71188;DHT22;58893;53.130;8.158;2022-07-17T00:27:13;16.90;56.10
71188;DHT22;58893;53.130;8.158;2022-07-17T00:29:39;16.90;56.20
71188;DHT22;58893;53.130;8.158;2022-07-17T00:32:04;16.90;56.30
71188;DHT22;58893;53.130;8.158;2022-07-17T00:34:30;16.90;56.40
71188;DHT22;58893;53.130;8.158;2022-07-17T00:36:56;16.90;56.30
71188;DHT22;58893;53.130;8.158;2022-07-17T00:39:21;16.90;56.20
71188;DHT22;58893;53.130;8.158;2022-07-17T00:41:47;16.90;56.20
71188;DHT22;58893;53.130;8.158;2022-07-17T00:44:13;16.90;56.30
71188;DHT22;58893;53.130;8.158;2022-07-17T00:46:39;16.90;56.40
71188;DHT22;58893;53.130;8.158;2022-07-17T00:49:06;16.90;56.10
71188;DHT22;58893;53.130;8.158;2022-07-17T00:51:32;16.90;55.80
71188;DHT22;58893;53.130;8.158;2022-07-17T00:53:59;16.80;55.50
71188;DHT22;58893;53.130;8.158;2022-07-17T00:56:25;16.80;55.50
71188;DHT22;58893;53.130;8.158;2022-07-17T00:58:52;16.80;55.60
71188;DHT22;58893;53.130;8.158;2022-07-17T01:01:18;16.70;55.60
71188;DHT22;58893;53.130;8.158;2022-07-17T01:03:44;16.70;55.70
71188;DHT22;58893;53.130;8.158;2022-07-17T01:06:09;16.70;55.80
71188;DHT22;58893;53.130;8.158;2022-07-17T01:08:35;16.70;56.00
71188;DHT22;58893;53.130;8.158;2022-07-17T01:11:02;16.70;56.20
71188;DHT22;58893;53.130;8.158;2022-07-17T01:13:27;16.60;56.40
71188;DHT22;58893;53.130;8.158;2022-07-17T01:15:54;16.60;56.60
71188;DHT22;58893;53.130;8.158;2022-07-17T01:18:20;16.60;56.80
71188;DHT22;58893;53.130;8.158;2022-07-17T01:20:47;16.60;56.90
71188;DHT22;58893;53.130;8.158;2022-07-17T01:23:15;16.60;56.90
71188;DHT22;58893;53.130;8.158;2022-07-17T01:25:41;16.60;57.00
71188;DHT22;58893;53.130;8.158;2022-07-17T01:28:07;16.50;57.10
71188;DHT22;58893;53.130;8.158;2022-07-17T01:30:34;16.50;57.30
71188;DHT22;58893;53.130;8.158;2022-07-17T01:33:00;16.50;57.20
71188;DHT22;58893;53.130;8.158;2022-07-17T01:35:27;16.50;57.20
71188;DHT22;58893;53.130;8.158;2022-07-17T01:37:53;16.50;57.30
71188;DHT22;58893;53.130;8.158;2022-07-17T01:40:19;16.50;57.40
71188;DHT22;58893;53.130;8.158;2022-07-17T01:42:49;16.50;57.50
71188;DHT22;58893;53.130;8.158;2022-07-17T01:45:17;16.50;57.60
71188;DHT22;58893;53.130;8.158;2022-07-17T01:47:43;16.50;57.70
71188;DHT22;58893;53.130;8.158;2022-07-17T01:50:10;16.50;57.70
71188;DHT22;58893;53.130;8.158;2022-07-17T01:52:39;16.50;57.70
71188;DHT22;58893;53.130;8.158;2022-07-17T01:55:06;16.40;57.60
71188;DHT22;58893;53.130;8.158;2022-07-17T01:57:33;16.40;57.60
71188;DHT22;58893;53.130;8.158;2022-07-17T01:59:58;16.40;57.50
71188;DHT22;58893;53.130;8.158;2022-07-17T02:02:24;16.40;57.60
71188;DHT22;58893;53.130;8.158;2022-07-17T02:04:50;16.40;57.70
71188;DHT22;58893;53.130;8.158;2022-07-17T02:07:15;16.40;57.70
71188;DHT22;58893;53.130;8.158;2022-07-17T02:09:41;16.40;57.70
71188;DHT22;58893;53.130;8.158;2022-07-17T02:12:07;16.40;57.70
71188;DHT22;58893;53.130;8.158;2022-07-17T02:14:34;16.40;57.60
71188;DHT22;58893;53.130;8.158;2022-07-17T02:17:00;16.40;57.30
71188;DHT22;58893;53.130;8.158;2022-07-17T02:19:26;16.40;57.20
71188;DHT22;58893;53.130;8.158;2022-07-17T02:21:52;16.30;56.90
71188;DHT22;58893;53.130;8.158;2022-07-17T02:24:18;16.30;57.00
71188;DHT22;58893;53.130;8.158;2022-07-17T02:26:44;16.20;57.10
71188;DHT22;58893;53.130;8.158;2022-07-17T02:29:09;16.20;57.10
71188;DHT22;58893;53.130;8.158;2022-07-17T02:31:35;16.20;57.20
71188;DHT22;58893;53.130;8.158;2022-07-17T02:34:01;16.10;57.20
71188;DHT22;58893;53.130;8.158;2022-07-17T02:36:26;16.10;57.30
71188;DHT22;58893;53.130;8.158;2022-07-17T02:38:52;16.10;57.30
71188;DHT22;58893;53.130;8.158;2022-07-17T02:41:18;16.10;57.10
71188;DHT22;58893;53.130;8.158;2022-07-17T02:43:44;16.00;57.00
71188;DHT22;58893;53.130;8.158;2022-07-17T02:46:09;16.00;57.10
71188;DHT22;58893;53.130;8.158;2022-07-17T02:48:35;16.00;57.30
71188;DHT22;58893;53.130;8.158;2022-07-17T02:51:00;16.00;57.40
71188;DHT22;58893;53.130;8.158;2022-07-17T02:53:26;15.90;57.40
71188;DHT22;58893;53.130;8.158;2022-07-17T02:55:52;15.90;57.50
71188;DHT22;58893;53.130;8.158;2022-07-17T02:58:18;15.90;57.60
71188;DHT22;58893;53.130;8.158;2022-07-17T03:00:44;15.90;57.70
71188;DHT22;58893;53.130;8.158;2022-07-17T03:03:09;15.90;57.80
71188;DHT22;58893;53.130;8.158;2022-07-17T03:05:35;15.90;57.70
71188;DHT22;58893;53.130;8.158;2022-07-17T03:08:00;15.80;57.50
71188;DHT22;58893;53.130;8.158;2022-07-17T03:10:26;15.80;57.50
71188;DHT22;58893;53.130;8.158;2022-07-17T03:12:52;15.80;57.50
71188;DHT22;58893;53.130;8.158;2022-07-17T03:15:17;15.80;57.50
71188;DHT22;58893;53.130;8.158;2022-07-17T03:17:43;15.80;57.50
71188;DHT22;58893;53.130;8.158;2022-07-17T03:20:09;15.80;57.40
71188;DHT22;58893;53.130;8.158;2022-07-17T03:22:35;15.70;57.30
71188;DHT22;58893;53.130;8.158;2022-07-17T03:25:02;15.70;57.40
71188;DHT22;58893;53.130;8.158;2022-07-17T03:27:27;15.70;57.50
71188;DHT22;58893;53.130;8.158;2022-07-17T03:29:53;15.70;57.70
71188;DHT22;58893;53.130;8.158;2022-07-17T03:32:22;15.70;57.80
71188;DHT22;58893;53.130;8.158;2022-07-17T03:34:48;15.70;57.80
71188;DHT22;58893;53.130;8.158;2022-07-17T03:37:14;15.70;58.30
71188;DHT22;58893;53.130;8.158;2022-07-17T03:39:39;15.70;58.90
71188;DHT22;58893;53.130;8.158;2022-07-17T03:42:05;15.70;59.20
71188;DHT22;58893;53.130;8.158;2022-07-17T03:44:30;15.80;59.40
71188;DHT22;58893;53.130;8.158;2022-07-17T03:46:56;15.80;59.40
71188;DHT22;58893;53.130;8.158;2022-07-17T03:49:22;15.80;59.50
71188;DHT22;58893;53.130;8.158;2022-07-17T03:51:48;15.80;59.50
71188;DHT22;58893;53.130;8.158;2022-07-17T03:54:13;15.90;59.60
71188;DHT22;58893;53.130;8.158;2022-07-17T03:56:39;15.90;59.60
71188;DHT22;58893;53.130;8.158;2022-07-17T03:59:05;15.90;59.50
71188;DHT22;58893;53.130;8.158;2022-07-17T04:01:30;15.90;60.00
71188;DHT22;58893;53.130;8.158;2022-07-17T04:03:56;15.90;59.40
71188;DHT22;58893;53.130;8.158;2022-07-17T04:06:21;15.90;59.50
71188;DHT22;58893;53.130;8.158;2022-07-17T04:08:47;15.90;59.40
71188;DHT22;58893;53.130;8.158;2022-07-17T04:11:13;15.80;59.20
71188;DHT22;58893;53.130;8.158;2022-07-17T04:13:38;15.80;59.20
71188;DHT22;58893;53.130;8.158;2022-07-17T04:16:04;15.80;59.40
71188;DHT22;58893;53.130;8.158;2022-07-17T04:18:32;15.80;59.50
71188;DHT22;58893;53.130;8.158;2022-07-17T04:21:04;15.80;59.60
71188;DHT22;58893;53.130;8.158;2022-07-17T04:23:30;15.80;59.60
71188;DHT22;58893;53.130;8.158;2022-07-17T04:25:56;15.90;59.80
71188;DHT22;58893;53.130;8.158;2022-07-17T04:28:22;15.90;59.90
71188;DHT22;58893;53.130;8.158;2022-07-17T04:30:48;15.90;59.90
71188;DHT22;58893;53.130;8.158;2022-07-17T04:33:15;15.90;60.00
71188;DHT22;58893;53.130;8.158;2022-07-17T04:35:40;15.90;60.00
71188;DHT22;58893;53.130;8.158;2022-07-17T04:38:07;15.90;60.10
71188;DHT22;58893;53.130;8.158;2022-07-17T04:40:35;15.90;60.20
71188;DHT22;58893;53.130;8.158;2022-07-17T04:43:01;16.00;60.30
71188;DHT22;58893;53.130;8.158;2022-07-17T04:45:28;16.00;60.30
71188;DHT22;58893;53.130;8.158;2022-07-17T04:47:53;16.00;60.40
71188;DHT22;58893;53.130;8.158;2022-07-17T04:50:19;16.00;60.40
71188;DHT22;58893;53.130;8.158;2022-07-17T04:52:45;16.00;60.40
71188;DHT22;58893;53.130;8.158;2022-07-17T04:55:10;16.10;60.50
71188;DHT22;58893;53.130;8.158;2022-07-17T04:57:36;16.10;60.50
71188;DHT22;58893;53.130;8.158;2022-07-17T05:00:06;16.10;60.50
71188;DHT22;58893;53.130;8.158;2022-07-17T05:02:32;16.10;60.50
71188;DHT22;58893;53.130;8.158;2022-07-17T05:04:58;16.10;60.50
71188;DHT22;58893;53.130;8.158;2022-07-17T05:07:24;16.10;60.60
71188;DHT22;58893;53.130;8.158;2022-07-17T05:09:50;16.10;60.70
71188;DHT22;58893;53.130;8.158;2022-07-17T05:12:15;16.10;60.80
71188;DHT22;58893;53.130;8.158;2022-07-17T05:14:41;16.20;61.60
71188;DHT22;58893;53.130;8.158;2022-07-17T05:17:07;16.20;61.00
71188;DHT22;58893;53.130;8.158;2022-07-17T05:19:32;16.20;61.10
71188;DHT22;58893;53.130;8.158;2022-07-17T05:21:59;16.20;61.10
71188;DHT22;58893;53.130;8.158;2022-07-17T05:24:24;16.20;61.80
71188;DHT22;58893;53.130;8.158;2022-07-17T05:26:50;16.30;61.20
71188;DHT22;58893;53.130;8.158;2022-07-17T05:29:16;16.30;61.10
71188;DHT22;58893;53.130;8.158;2022-07-17T05:31:41;16.30;61.10
71188;DHT22;58893;53.130;8.158;2022-07-17T05:34:07;16.30;61.10
71188;DHT22;58893;53.130;8.158;2022-07-17T05:36:33;16.40;61.10
71188;DHT22;58893;53.130;8.158;2022-07-17T05:38:59;16.40;61.10
71188;DHT22;58893;53.130;8.158;2022-07-17T05:41:24;16.40;61.10
71188;DHT22;58893;53.130;8.158;2022-07-17T05:43:50;16.40;61.80
71188;DHT22;58893;53.130;8.158;2022-07-17T05:46:16;16.50;61.30
71188;DHT22;58893;53.130;8.158;2022-07-17T05:48:41;16.50;61.50
71188;DHT22;58893;53.130;8.158;2022-07-17T05:51:07;16.60;61.80
71188;DHT22;58893;53.130;8.158;2022-07-17T05:53:32;16.60;61.90
71188;DHT22;58893;53.130;8.158;2022-07-17T05:55:59;16.70;61.90
71188;DHT22;58893;53.130;8.158;2022-07-17T05:58:24;16.70;62.00
71188;DHT22;58893;53.130;8.158;2022-07-17T06:00:50;16.80;62.10
71188;DHT22;58893;53.130;8.158;2022-07-17T06:03:16;16.90;62.20
71188;DHT22;58893;53.130;8.158;2022-07-17T06:05:42;16.90;62.30
71188;DHT22;58893;53.130;8.158;2022-07-17T06:08:08;17.00;62.40
71188;DHT22;58893;53.130;8.158;2022-07-17T06:10:34;17.10;63.10
71188;DHT22;58893;53.130;8.158;2022-07-17T06:13:00;17.20;62.40
71188;DHT22;58893;53.130;8.158;2022-07-17T06:15:26;17.30;62.60
71188;DHT22;58893;53.130;8.158;2022-07-17T06:17:52;17.30;62.50
71188;DHT22;58893;53.130;8.158;2022-07-17T06:20:18;17.40;62.60
71188;DHT22;58893;53.130;8.158;2022-07-17T06:22:44;17.50;62.80
71188;DHT22;58893;53.130;8.158;2022-07-17T06:25:11;17.70;63.10
71188;DHT22;58893;53.130;8.158;2022-07-17T06:27:41;17.80;63.20
71188;DHT22;58893;53.130;8.158;2022-07-17T06:30:08;18.00;63.10
71188;DHT22;58893;53.130;8.158;2022-07-17T06:32:34;18.10;62.90
71188;DHT22;58893;53.130;8.158;2022-07-17T06:34:59;18.30;62.70
71188;DHT22;58893;53.130;8.158;2022-07-17T06:37:25;18.40;62.20
71188;DHT22;58893;53.130;8.158;2022-07-17T06:39:51;18.60;61.90
71188;DHT22;58893;53.130;8.158;2022-07-17T06:42:16;18.80;61.50
71188;DHT22;58893;53.130;8.158;2022-07-17T06:44:42;18.90;61.10
71188;DHT22;58893;53.130;8.158;2022-07-17T06:47:07;19.00;60.70
71188;DHT22;58893;53.130;8.158;2022-07-17T06:49:33;19.20;60.50
71188;DHT22;58893;53.130;8.158;2022-07-17T06:51:59;19.30;60.00
71188;DHT22;58893;53.130;8.158;2022-07-17T06:54:25;19.40;59.40
71188;DHT22;58893;53.130;8.158;2022-07-17T06:56:52;19.40;58.90
71188;DHT22;58893;53.130;8.158;2022-07-17T06:59:18;19.40;58.60
71188;DHT22;58893;53.130;8.158;2022-07-17T07:01:44;19.50;58.60
71188;DHT22;58893;53.130;8.158;2022-07-17T07:04:09;19.50;58.30
71188;DHT22;58893;53.130;8.158;2022-07-17T07:06:35;19.50;58.00
71188;DHT22;58893;53.130;8.158;2022-07-17T07:09:00;19.50;58.50
71188;DHT22;58893;53.130;8.158;2022-07-17T07:11:26;19.50;57.90
71188;DHT22;58893;53.130;8.158;2022-07-17T07:13:52;19.40;57.70
71188;DHT22;58893;53.130;8.158;2022-07-17T07:16:17;19.40;57.80
71188;DHT22;58893;53.130;8.158;2022-07-17T07:18:43;19.40;57.80
71188;DHT22;58893;53.130;8.158;2022-07-17T07:21:09;19.40;57.90
71188;DHT22;58893;53.130;8.158;2022-07-17T07:23:34;19.50;58.00
71188;DHT22;58893;53.130;8.158;2022-07-17T07:26:01;19.50;58.00
71188;DHT22;58893;53.130;8.158;2022-07-17T07:28:26;19.50;57.90
71188;DHT22;58893;53.130;8.158;2022-07-17T07:30:52;19.60;57.80
71188;DHT22;58893;53.130;8.158;2022-07-17T07:33:18;19.60;57.60
71188;DHT22;58893;53.130;8.158;2022-07-17T07:35:44;19.70;57.60
71188;DHT22;58893;53.130;8.158;2022-07-17T07:38:09;19.70;57.40
71188;DHT22;58893;53.130;8.158;2022-07-17T07:40:35;19.70;57.20
71188;DHT22;58893;53.130;8.158;2022-07-17T07:43:02;19.80;57.20
71188;DHT22;58893;53.130;8.158;2022-07-17T07:45:28;19.80;57.20
71188;DHT22;58893;53.130;8.158;2022-07-17T07:47:53;19.80;57.00
71188;DHT22;58893;53.130;8.158;2022-07-17T07:50:23;19.80;57.00
71188;DHT22;58893;53.130;8.158;2022-07-17T07:52:49;19.80;57.10
71188;DHT22;58893;53.130;8.158;2022-07-17T07:55:15;19.80;57.20
71188;DHT22;58893;53.130;8.158;2022-07-17T07:57:41;19.90;57.10
71188;DHT22;58893;53.130;8.158;2022-07-17T08:00:08;19.80;56.90
71188;DHT22;58893;53.130;8.158;2022-07-17T08:02:34;19.90;56.80
71188;DHT22;58893;53.130;8.158;2022-07-17T08:05:00;19.90;56.80
71188;DHT22;58893;53.130;8.158;2022-07-17T08:07:27;19.90;56.90
71188;DHT22;58893;53.130;8.158;2022-07-17T08:09:53;19.90;57.00
71188;DHT22;58893;53.130;8.158;2022-07-17T08:12:19;19.90;56.80
71188;DHT22;58893;53.130;8.158;2022-07-17T08:14:45;19.90;56.80
71188;DHT22;58893;53.130;8.158;2022-07-17T08:17:10;19.90;56.70
71188;DHT22;58893;53.130;8.158;2022-07-17T08:19:36;19.90;56.60
71188;DHT22;58893;53.130;8.158;2022-07-17T08:22:02;19.90;56.50
71188;DHT22;58893;53.130;8.158;2022-07-17T08:24:27;19.90;56.40
71188;DHT22;58893;53.130;8.158;2022-07-17T08:26:53;20.00;56.50
71188;DHT22;58893;53.130;8.158;2022-07-17T08:29:18;19.90;56.20
71188;DHT22;58893;53.130;8.158;2022-07-17T08:31:44;19.90;56.20
71188;DHT22;58893;53.130;8.158;2022-07-17T08:34:10;20.00;56.20
71188;DHT22;58893;53.130;8.158;2022-07-17T08:36:35;20.00;56.10
71188;DHT22;58893;53.130;8.158;2022-07-17T08:39:01;20.10;56.30
71188;DHT22;58893;53.130;8.158;2022-07-17T08:41:28;20.20;56.80
71188;DHT22;58893;53.130;8.158;2022-07-17T08:43:54;20.30;58.30
71188;DHT22;58893;53.130;8.158;2022-07-17T08:46:23;20.30;57.30
71188;DHT22;58893;53.130;8.158;2022-07-17T08:48:55;20.40;58.20
71188;DHT22;58893;53.130;8.158;2022-07-17T08:51:21;20.50;59.30
71188;DHT22;58893;53.130;8.158;2022-07-17T08:53:47;20.50;60.00
71188;DHT22;58893;53.130;8.158;2022-07-17T08:56:13;20.60;60.60
71188;DHT22;58893;53.130;8.158;2022-07-17T08:58:39;20.60;60.00
71188;DHT22;58893;53.130;8.158;2022-07-17T09:01:05;20.70;59.10
71188;DHT22;58893;53.130;8.158;2022-07-17T09:03:30;20.70;58.00
71188;DHT22;58893;53.130;8.158;2022-07-17T09:05:57;20.70;58.00
71188;DHT22;58893;53.130;8.158;2022-07-17T09:08:24;20.70;57.90
71188;DHT22;58893;53.130;8.158;2022-07-17T09:10:52;20.70;57.30
71188;DHT22;58893;53.130;8.158;2022-07-17T09:13:30;20.70;57.60
71188;DHT22;58893;53.130;8.158;2022-07-17T09:15:59;20.80;58.40
71188;DHT22;58893;53.130;8.158;2022-07-17T09:18:25;20.80;58.00
71188;DHT22;58893;53.130;8.158;2022-07-17T09:20:53;20.80;58.10
71188;DHT22;58893;53.130;8.158;2022-07-17T09:23:20;20.90;57.60
71188;DHT22;58893;53.130;8.158;2022-07-17T09:25:48;20.90;57.10
71188;DHT22;58893;53.130;8.158;2022-07-17T09:28:15;20.90;54.80
71188;DHT22;58893;53.130;8.158;2022-07-17T09:30:44;21.00;55.10
71188;DHT22;58893;53.130;8.158;2022-07-17T09:33:37;21.00;55.10
71188;DHT22;58893;53.130;8.158;2022-07-17T09:36:10;21.00;54.90
71188;DHT22;58893;53.130;8.158;2022-07-17T09:38:41;21.00;55.40
71188;DHT22;58893;53.130;8.158;2022-07-17T09:41:10;21.00;55.80
71188;DHT22;58893;53.130;8.158;2022-07-17T09:43:54;21.00;56.10
71188;DHT22;58893;53.130;8.158;2022-07-17T09:46:21;21.00;55.70
71188;DHT22;58893;53.130;8.158;2022-07-17T09:49:04;21.00;55.10
71188;DHT22;58893;53.130;8.158;2022-07-17T09:51:32;21.00;54.30
71188;DHT22;58893;53.130;8.158;2022-07-17T09:54:02;21.00;53.80
71188;DHT22;58893;53.130;8.158;2022-07-17T09:56:32;21.00;53.80
71188;DHT22;58893;53.130;8.158;2022-07-17T09:59:03;21.00;53.80
71188;DHT22;58893;53.130;8.158;2022-07-17T10:01:30;21.00;53.60
71188;DHT22;58893;53.130;8.158;2022-07-17T10:03:56;21.00;53.70
71188;DHT22;58893;53.130;8.158;2022-07-17T10:06:23;21.00;53.90
71188;DHT22;58893;53.130;8.158;2022-07-17T10:08:50;21.00;53.90
71188;DHT22;58893;53.130;8.158;2022-07-17T10:11:19;21.00;53.90
71188;DHT22;58893;53.130;8.158;2022-07-17T10:13:46;21.00;53.80
71188;DHT22;58893;53.130;8.158;2022-07-17T10:16:13;21.00;53.90
71188;DHT22;58893;53.130;8.158;2022-07-17T10:18:43;21.00;54.40
71188;DHT22;58893;53.130;8.158;2022-07-17T10:23:35;21.00;52.90
71188;DHT22;58893;53.130;8.158;2022-07-17T10:26:00;21.00;52.80
71188;DHT22;58893;53.130;8.158;2022-07-17T10:28:42;21.00;52.70
71188;DHT22;58893;53.130;8.158;2022-07-17T10:31:08;21.00;52.20
71188;DHT22;58893;53.130;8.158;2022-07-17T10:33:34;21.00;51.40
71188;DHT22;58893;53.130;8.158;2022-07-17T10:36:00;21.00;50.70
71188;DHT22;58893;53.130;8.158;2022-07-17T10:38:27;21.00;50.80
71188;DHT22;58893;53.130;8.158;2022-07-17T10:41:00;21.00;51.00
71188;DHT22;58893;53.130;8.158;2022-07-17T10:43:26;21.10;51.40
71188;DHT22;58893;53.130;8.158;2022-07-17T10:45:52;21.10;51.30
71188;DHT22;58893;53.130;8.158;2022-07-17T10:48:20;21.10;50.90
71188;DHT22;58893;53.130;8.158;2022-07-17T10:50:54;21.10;50.70
71188;DHT22;58893;53.130;8.158;2022-07-17T10:53:29;21.20;50.50
71188;DHT22;58893;53.130;8.158;2022-07-17T10:55:58;21.20;50.60
71188;DHT22;58893;53.130;8.158;2022-07-17T11:01:10;21.20;51.10
71188;DHT22;58893;53.130;8.158;2022-07-17T11:08:42;21.40;51.80
71188;DHT22;58893;53.130;8.158;2022-07-17T11:11:09;21.40;51.70
71188;DHT22;58893;53.130;8.158;2022-07-17T11:13:34;21.50;51.90
71188;DHT22;58893;53.130;8.158;2022-07-17T11:16:00;21.60;51.70
71188;DHT22;58893;53.130;8.158;2022-07-17T11:18:26;21.70;51.40
71188;DHT22;58893;53.130;8.158;2022-07-17T11:20:58;21.80;51.20
71188;DHT22;58893;53.130;8.158;2022-07-17T11:23:28;21.90;50.50
71188;DHT22;58893;53.130;8.158;2022-07-17T11:26:07;22.00;50.10
71188;DHT22;58893;53.130;8.158;2022-07-17T11:28:39;22.10;49.70
71188;DHT22;58893;53.130;8.158;2022-07-17T11:33:56;22.30;48.80
71188;DHT22;58893;53.130;8.158;2022-07-17T11:38:54;22.50;48.00
71188;DHT22;58893;53.130;8.158;2022-07-17T11:41:20;22.60;48.40
71188;DHT22;58893;53.130;8.158;2022-07-17T11:43:46;22.70;49.00
71188;DHT22;58893;53.130;8.158;2022-07-17T11:46:14;22.80;49.10
71188;DHT22;58893;53.130;8.158;2022-07-17T11:48:42;23.00;49.40
71188;DHT22;58893;53.130;8.158;2022-07-17T11:51:08;23.10;49.20
71188;DHT22;58893;53.130;8.158;2022-07-17T11:53:35;23.10;48.30
71188;DHT22;58893;53.130;8.158;2022-07-17T11:56:02;23.20;48.30
71188;DHT22;58893;53.130;8.158;2022-07-17T11:58:28;23.30;48.60
71188;DHT22;58893;53.130;8.158;2022-07-17T12:01:04;23.40;48.90
71188;DHT22;58893;53.130;8.158;2022-07-17T12:03:30;23.50;48.60
71188;DHT22;58893;53.130;8.158;2022-07-17T12:05:56;23.50;48.10
71188;DHT22;58893;53.130;8.158;2022-07-17T12:08:21;23.60;47.70
71188;DHT22;58893;53.130;8.158;2022-07-17T12:10:47;23.60;47.50
71188;DHT22;58893;53.130;8.158;2022-07-17T12:13:13;23.70;47.50
71188;DHT22;58893;53.130;8.158;2022-07-17T12:18:23;23.90;47.40
71188;DHT22;58893;53.130;8.158;2022-07-17T12:20:50;24.00;48.10
71188;DHT22;58893;53.130;8.158;2022-07-17T12:23:36;24.00;46.50
71188;DHT22;58893;53.130;8.158;2022-07-17T12:26:13;24.00;46.20
71188;DHT22;58893;53.130;8.158;2022-07-17T12:28:43;24.10;46.40
71188;DHT22;58893;53.130;8.158;2022-07-17T12:31:10;24.10;46.30
71188;DHT22;58893;53.130;8.158;2022-07-17T12:33:36;24.10;45.50
71188;DHT22;58893;53.130;8.158;2022-07-17T12:36:02;24.10;45.40
71188;DHT22;58893;53.130;8.158;2022-07-17T12:38:28;24.20;45.60
71188;DHT22;58893;53.130;8.158;2022-07-17T12:40:54;24.20;45.70
71188;DHT22;58893;53.130;8.158;2022-07-17T12:43:20;24.20;45.60
71188;DHT22;58893;53.130;8.158;2022-07-17T12:45:45;24.30;45.60
71188;DHT22;58893;53.130;8.158;2022-07-17T12:48:11;24.30;45.60
71188;DHT22;58893;53.130;8.158;2022-07-17T12:50:37;24.30;45.70
71188;DHT22;58893;53.130;8.158;2022-07-17T12:53:03;24.30;46.10
71188;DHT22;58893;53.130;8.158;2022-07-17T12:55:28;24.40;46.50
71188;DHT22;58893;53.130;8.158;2022-07-17T12:57:54;24.40;46.50
71188;DHT22;58893;53.130;8.158;2022-07-17T13:00:20;24.40;46.60
71188;DHT22;58893;53.130;8.158;2022-07-17T13:02:46;24.40;46.50
71188;DHT22;58893;53.130;8.158;2022-07-17T13:05:11;24.40;46.40
71188;DHT22;58893;53.130;8.158;2022-07-17T13:07:37;24.40;46.40
71188;DHT22;58893;53.130;8.158;2022-07-17T13:10:03;24.40;46.40
71188;DHT22;58893;53.130;8.158;2022-07-17T13:12:29;24.40;46.40
71188;DHT22;58893;53.130;8.158;2022-07-17T13:14:54;24.50;46.40
71188;DHT22;58893;53.130;8.158;2022-07-17T13:17:20;24.50;46.30
71188;DHT22;58893;53.130;8.158;2022-07-17T13:19:45;24.40;46.40
71188;DHT22;58893;53.130;8.158;2022-07-17T13:22:11;24.40;46.20
71188;DHT22;58893;53.130;8.158;2022-07-17T13:24:37;24.40;46.20
71188;DHT22;58893;53.130;8.158;2022-07-17T13:27:03;24.40;46.20
71188;DHT22;58893;53.130;8.158;2022-07-17T13:29:28;24.40;46.30
71188;DHT22;58893;53.130;8.158;2022-07-17T13:31:54;24.40;46.50
71188;DHT22;58893;53.130;8.158;2022-07-17T13:34:20;24.40;46.40
71188;DHT22;58893;53.130;8.158;2022-07-17T13:36:47;24.40;46.20
71188;DHT22;58893;53.130;8.158;2022-07-17T13:39:13;24.30;46.10
71188;DHT22;58893;53.130;8.158;2022-07-17T13:41:39;24.30;45.90
71188;DHT22;58893;53.130;8.158;2022-07-17T13:44:06;24.20;45.80
71188;DHT22;58893;53.130;8.158;2022-07-17T13:46:32;24.20;46.00
71188;DHT22;58893;53.130;8.158;2022-07-17T13:48:58;24.20;46.30
71188;DHT22;58893;53.130;8.158;2022-07-17T13:51:25;24.10;46.30
71188;DHT22;58893;53.130;8.158;2022-07-17T13:53:51;24.10;46.40
71188;DHT22;58893;53.130;8.158;2022-07-17T13:56:17;24.00;46.60
71188;DHT22;58893;53.130;8.158;2022-07-17T13:58:43;24.00;46.80
71188;DHT22;58893;53.130;8.158;2022-07-17T14:01:11;24.00;47.10
71188;DHT22;58893;53.130;8.158;2022-07-17T14:03:37;24.00;47.10
71188;DHT22;58893;53.130;8.158;2022-07-17T14:06:03;24.00;47.10
71188;DHT22;58893;53.130;8.158;2022-07-17T14:08:28;23.90;47.10
71188;DHT22;58893;53.130;8.158;2022-07-17T14:10:54;23.90;47.00
71188;DHT22;58893;53.130;8.158;2022-07-17T14:13:20;23.90;47.10
71188;DHT22;58893;53.130;8.158;2022-07-17T14:15:45;23.90;47.00
71188;DHT22;58893;53.130;8.158;2022-07-17T14:18:11;23.90;46.70
71188;DHT22;58893;53.130;8.158;2022-07-17T14:20:37;23.90;46.70
71188;DHT22;58893;53.130;8.158;2022-07-17T14:23:03;23.90;46.90
71188;DHT22;58893;53.130;8.158;2022-07-17T14:25:29;23.90;47.20
71188;DHT22;58893;53.130;8.158;2022-07-17T14:27:54;23.90;47.30
71188;DHT22;58893;53.130;8.158;2022-07-17T14:30:20;23.90;47.50
71188;DHT22;58893;53.130;8.158;2022-07-17T14:32:46;23.90;47.60
71188;DHT22;58893;53.130;8.158;2022-07-17T14:35:11;23.90;47.70
71188;DHT22;58893;53.130;8.158;2022-07-17T14:37:37;23.90;47.60
71188;DHT22;58893;53.130;8.158;2022-07-17T14:40:03;23.90;47.80
71188;DHT22;58893;53.130;8.158;2022-07-17T14:42:29;24.00;47.60
71188;DHT22;58893;53.130;8.158;2022-07-17T14:44:59;23.90;47.50
71188;DHT22;58893;53.130;8.158;2022-07-17T14:47:24;23.90;47.30
71188;DHT22;58893;53.130;8.158;2022-07-17T14:49:50;24.00;47.20
71188;DHT22;58893;53.130;8.158;2022-07-17T14:52:16;24.00;47.10
71188;DHT22;58893;53.130;8.158;2022-07-17T14:54:42;24.00;47.20
71188;DHT22;58893;53.130;8.158;2022-07-17T14:57:07;24.00;47.40
71188;DHT22;58893;53.130;8.158;2022-07-17T14:59:33;24.00;47.60
71188;DHT22;58893;53.130;8.158;2022-07-17T15:01:59;24.00;47.80
71188;DHT22;58893;53.130;8.158;2022-07-17T15:04:24;24.00;47.90
71188;DHT22;58893;53.130;8.158;2022-07-17T15:06:50;24.00;48.00
71188;DHT22;58893;53.130;8.158;2022-07-17T15:09:16;24.00;47.90
71188;DHT22;58893;53.130;8.158;2022-07-17T15:11:41;24.00;48.00
71188;DHT22;58893;53.130;8.158;2022-07-17T15:14:07;24.00;48.20
71188;DHT22;58893;53.130;8.158;2022-07-17T15:16:32;24.00;47.90
71188;DHT22;58893;53.130;8.158;2022-07-17T15:18:58;23.90;47.30
71188;DHT22;58893;53.130;8.158;2022-07-17T15:21:24;23.90;47.20
71188;DHT22;58893;53.130;8.158;2022-07-17T15:23:49;23.90;47.30
71188;DHT22;58893;53.130;8.158;2022-07-17T15:26:15;23.90;47.40
71188;DHT22;58893;53.130;8.158;2022-07-17T15:28:41;23.90;47.50
71188;DHT22;58893;53.130;8.158;2022-07-17T15:31:06;23.80;48.10
71188;DHT22;58893;53.130;8.158;2022-07-17T15:33:32;23.80;47.90
71188;DHT22;58893;53.130;8.158;2022-07-17T15:36:01;23.80;48.90
71188;DHT22;58893;53.130;8.158;2022-07-17T15:38:27;23.80;49.20
71188;DHT22;58893;53.130;8.158;2022-07-17T15:40:52;23.80;48.90
71188;DHT22;58893;53.130;8.158;2022-07-17T15:43:18;23.80;48.70